Time;durP1;ratioP1;P1;durP2;ratioP2;P2;SDS_P1;SDS_P2;PMS_P1;PMS_P2;Temp;Humidity;BMP_temperature;BMP_pressure;BME280_temperature;BME280_humidity;BME280_pressure;Samples;Min_cycle;Max_cycle;Signal;HPM_P1;HPM_P2
2022/11/27 00:01:48;;;;;;;23.30;14.90;;;10.80;99.90;;;;;;5056326;28;20216;-77
2022/11/27 00:04:15;;;;;;;19.52;14.73;;;10.80;99.90;;;;;;5053926;28;20219;-78
2022/11/27 00:06:42;;;;;;;17.58;14.05;;;10.80;99.90;;;;;;5071850;28;20732;-79
2022/11/27 00:09:12;;;;;;;19.95;13.82;;;10.80;99.90;;;;;;5056169;28;20676;-79
2022/11/27 00:11:39;;;;;;;19.13;14.20;;;10.80;99.90;;;;;;5070195;28;20250;-80
2022/11/27 00:14:14;;;;;;;20.85;14.32;;;10.80;99.90;;;;;;5072866;28;20653;-78
2022/11/27 00:16:41;;;;;;;27.65;17.58;;;10.80;99.90;;;;;;5069657;28;20302;-79
2022/11/27 00:19:09;;;;;;;19.52;14.45;;;10.80;99.90;;;;;;4991816;28;20555;-79
2022/11/27 00:21:37;;;;;;;19.40;14.25;;;10.80;99.90;;;;;;5053219;28;20290;-78
2022/11/27 00:24:06;;;;;;;27.00;15.38;;;10.80;99.90;;;;;;5056046;28;20331;-79
2022/11/27 00:26:35;;;;;;;20.85;14.00;;;10.80;99.90;;;;;;5065671;28;20672;-77
2022/11/27 00:29:03;;;;;;;23.75;15.40;;;10.80;99.90;;;;;;5071229;28;20231;-76
2022/11/27 00:31:32;;;;;;;17.20;12.40;;;10.80;99.90;;;;;;5048890;28;20306;-77
2022/11/27 00:34:00;;;;;;;27.35;14.32;;;10.80;99.90;;;;;;5065219;28;20250;-77
2022/11/27 00:36:28;;;;;;;17.35;12.82;;;10.80;99.90;;;;;;5063023;28;20240;-79
2022/11/27 00:39:06;;;;;;;21.75;13.55;;;10.80;99.90;;;;;;5048943;28;20643;-76
2022/11/27 00:41:35;;;;;;;21.75;12.15;;;10.80;99.90;;;;;;5055674;28;20274;-78
2022/11/27 00:44:02;;;;;;;21.58;12.52;;;10.80;99.90;;;;;;5053491;28;20315;-78
2022/11/27 00:46:32;;;;;;;22.17;13.88;;;10.80;99.90;;;;;;5056469;28;20239;-81
2022/11/27 00:49:01;;;;;;;18.00;11.57;;;10.80;99.90;;;;;;5055514;28;20629;-79
2022/11/27 00:51:30;;;;;;;18.75;11.85;;;10.80;99.90;;;;;;5073877;28;20602;-78
2022/11/27 00:56:48;;;;;;;18.60;10.82;;;10.80;99.90;;;;;;5071892;28;20231;-80
2022/11/27 00:59:15;;;;;;;17.45;12.38;;;10.80;99.90;;;;;;5044524;28;20225;-80
2022/11/27 01:01:44;;;;;;;22.50;12.57;;;10.80;99.90;;;;;;5049420;28;20239;-79
2022/11/27 01:04:16;;;;;;;16.08;12.07;;;10.80;99.90;;;;;;5064882;28;20568;-77
2022/11/27 01:06:45;;;;;;;22.40;14.02;;;10.80;99.90;;;;;;5055271;28;20224;-77
2022/11/27 01:09:12;;;;;;;19.20;13.13;;;10.80;99.90;;;;;;5066699;28;20561;-79
2022/11/27 01:11:41;;;;;;;17.20;11.40;;;10.80;99.90;;;;;;5070242;28;22488;-78
2022/11/27 01:14:12;;;;;;;16.98;11.50;;;10.80;99.90;;;;;;5053958;28;20229;-79
2022/11/27 01:16:42;;;;;;;17.58;11.05;;;10.90;99.90;;;;;;5055262;28;20239;-78
2022/11/27 01:19:11;;;;;;;15.15;10.75;;;10.90;99.90;;;;;;5065861;28;20228;-77
2022/11/27 01:21:46;;;;;;;11.98;10.60;;;10.90;99.90;;;;;;5035656;28;20243;-77
2022/11/27 01:24:14;;;;;;;14.63;9.88;;;10.90;99.90;;;;;;5059507;28;20224;-77
2022/11/27 01:26:46;;;;;;;17.77;12.38;;;10.90;99.90;;;;;;5051557;28;20597;-77
2022/11/27 01:29:15;;;;;;;12.48;10.30;;;10.90;99.90;;;;;;5058268;28;20632;-78
2022/11/27 01:31:42;;;;;;;14.88;10.23;;;10.80;99.90;;;;;;5054170;28;20578;-78
2022/11/27 01:34:14;;;;;;;11.55;10.35;;;10.90;99.90;;;;;;5052930;28;20221;-79
2022/11/27 01:36:42;;;;;;;11.80;9.93;;;10.90;99.90;;;;;;5054442;28;20304;-79
2022/11/27 01:39:15;;;;;;;12.73;9.57;;;10.90;99.90;;;;;;5052613;28;20263;-80
2022/11/27 01:41:44;;;;;;;12.90;9.20;;;10.90;99.90;;;;;;5054908;28;20599;-78
2022/11/27 01:44:50;;;;;;;12.07;10.45;;;10.90;99.90;;;;;;5054966;28;20225;-77
2022/11/27 01:47:29;;;;;;;13.77;9.82;;;10.90;99.90;;;;;;5054972;28;20221;-79
2022/11/27 01:50:09;;;;;;;11.15;9.73;;;10.80;99.90;;;;;;5055318;28;20228;-78
2022/11/27 01:52:41;;;;;;;15.32;10.48;;;10.80;99.90;;;;;;5055573;28;20311;-79
2022/11/27 01:55:12;;;;;;;16.52;9.93;;;10.80;99.90;;;;;;5055717;28;20286;-78
2022/11/27 01:57:44;;;;;;;17.50;9.85;;;10.80;99.90;;;;;;5055550;28;20221;-79
2022/11/27 02:00:16;;;;;;;14.80;9.15;;;10.80;99.90;;;;;;5056782;28;20232;-79
2022/11/27 02:02:45;;;;;;;13.45;8.63;;;10.80;99.90;;;;;;5056454;28;20217;-80
2022/11/27 02:05:15;;;;;;;9.80;8.80;;;10.80;99.90;;;;;;5055028;28;20225;-77
2022/11/27 02:07:43;;;;;;;12.13;8.50;;;10.80;99.90;;;;;;5054096;28;20232;-77
2022/11/27 02:10:11;;;;;;;9.43;7.93;;;10.80;99.90;;;;;;5055405;28;20264;-77
2022/11/27 02:12:47;;;;;;;9.63;8.55;;;10.80;99.90;;;;;;5046594;28;20228;-76
2022/11/27 02:15:21;;;;;;;14.43;10.50;;;10.80;99.90;;;;;;5055162;28;20347;-77
2022/11/27 02:17:56;;;;;;;11.60;9.45;;;10.80;99.90;;;;;;5054083;28;20215;-77
2022/11/27 02:20:43;;;;;;;11.95;9.07;;;10.80;99.90;;;;;;5054939;28;20232;-76
2022/11/27 02:23:29;;;;;;;13.43;8.85;;;10.80;99.90;;;;;;5053553;28;20229;-77
2022/11/27 02:26:17;;;;;;;16.10;10.70;;;10.80;99.90;;;;;;5054144;28;20678;-77
2022/11/27 02:29:00;;;;;;;14.77;10.73;;;10.80;99.90;;;;;;5050286;28;20221;-77
2022/11/27 02:31:37;;;;;;;14.57;11.52;;;10.80;99.90;;;;;;5054098;28;20630;-79
2022/11/27 02:34:14;;;;;;;14.80;10.85;;;10.70;99.90;;;;;;5054157;28;20712;-77
2022/11/27 02:36:47;;;;;;;15.90;9.52;;;10.70;99.90;;;;;;5052480;28;20242;-77
2022/11/27 02:39:20;;;;;;;18.60;12.82;;;10.70;99.90;;;;;;5053312;28;20678;-77
2022/11/27 02:41:53;;;;;;;18.30;11.07;;;10.70;99.90;;;;;;5053330;28;20252;-78
2022/11/27 02:44:23;;;;;;;15.13;10.73;;;10.70;99.90;;;;;;5053711;28;20344;-79
2022/11/27 02:46:53;;;;;;;20.70;11.32;;;10.70;99.90;;;;;;5053837;28;20609;-79
2022/11/27 02:49:21;;;;;;;14.15;10.63;;;10.70;99.90;;;;;;5054173;28;20318;-79
2022/11/27 02:51:54;;;;;;;15.00;10.88;;;10.60;99.90;;;;;;5038095;28;20225;-79
2022/11/27 02:54:28;;;;;;;14.15;9.77;;;10.60;99.90;;;;;;5022461;28;20225;-77
2022/11/27 02:57:08;;;;;;;20.33;13.43;;;10.60;99.90;;;;;;5032729;28;20673;-79
2022/11/27 02:59:37;;;;;;;15.43;11.23;;;10.60;99.90;;;;;;5033423;28;20221;-80
2022/11/27 03:02:08;;;;;;;17.75;10.65;;;10.60;99.90;;;;;;5031293;28;20291;-77
2022/11/27 03:04:43;;;;;;;16.65;11.55;;;10.60;99.90;;;;;;5033559;28;20742;-77
2022/11/27 03:07:14;;;;;;;14.38;10.30;;;10.50;99.90;;;;;;5032829;28;20225;-77
2022/11/27 03:09:45;;;;;;;17.17;11.13;;;10.50;99.90;;;;;;5034334;28;20221;-77
2022/11/27 03:12:14;;;;;;;12.82;10.90;;;10.50;99.90;;;;;;5032630;28;20232;-78
2022/11/27 03:14:43;;;;;;;15.70;11.80;;;10.50;99.90;;;;;;5033032;28;20283;-78
2022/11/27 03:17:22;;;;;;;13.35;10.95;;;10.40;99.90;;;;;;5032539;28;20279;-79
2022/11/27 03:19:53;;;;;;;17.88;11.27;;;10.40;99.90;;;;;;5030802;28;20540;-77
2022/11/27 03:22:25;;;;;;;13.32;10.68;;;10.40;99.90;;;;;;5032918;28;20225;-77
2022/11/27 03:24:56;;;;;;;18.75;12.27;;;10.30;99.90;;;;;;5033420;28;20229;-79
2022/11/27 03:27:36;;;;;;;12.65;9.98;;;10.30;99.90;;;;;;5033586;28;20233;-78
2022/11/27 03:30:07;;;;;;;11.98;10.07;;;10.30;99.90;;;;;;5031900;28;20248;-78
2022/11/27 03:35:30;;;;;;;14.80;10.35;;;10.30;99.90;;;;;;5034111;28;20220;-76
2022/11/27 03:37:57;;;;;;;13.15;10.18;;;10.30;99.90;;;;;;5038682;28;20216;-80
2022/11/27 03:40:30;;;;;;;13.23;10.60;;;10.30;99.90;;;;;;5039780;28;20229;-79
2022/11/27 03:43:04;;;;;;;15.32;11.18;;;10.30;99.90;;;;;;5039508;28;20245;-79
2022/11/27 03:45:39;;;;;;;14.07;10.43;;;10.30;99.90;;;;;;5030323;28;20231;-80
2022/11/27 03:48:17;;;;;;;11.82;9.40;;;10.30;99.90;;;;;;5039011;28;20258;-78
2022/11/27 03:50:53;;;;;;;13.45;10.45;;;10.30;99.90;;;;;;5036601;28;20244;-78
2022/11/27 03:53:29;;;;;;;14.25;9.60;;;10.30;99.90;;;;;;5038199;28;20276;-77
2022/11/27 03:56:04;;;;;;;12.18;10.50;;;10.30;99.90;;;;;;5039444;28;20257;-79
2022/11/27 03:58:36;;;;;;;11.27;9.13;;;10.30;99.90;;;;;;5038347;28;20220;-79
2022/11/27 04:01:08;;;;;;;16.27;10.40;;;10.30;99.90;;;;;;5038655;28;20233;-79
2022/11/27 04:03:35;;;;;;;17.55;12.25;;;10.20;99.90;;;;;;5039207;28;20654;-79
2022/11/27 04:06:03;;;;;;;12.70;9.68;;;10.20;99.90;;;;;;5038066;28;20231;-79
2022/11/27 04:08:30;;;;;;;12.30;10.55;;;10.20;99.90;;;;;;5038629;28;20248;-79
2022/11/27 04:10:57;;;;;;;11.93;9.77;;;10.20;99.90;;;;;;5038522;28;20251;-77
2022/11/27 04:13:29;;;;;;;11.90;9.65;;;10.20;99.90;;;;;;5038638;28;20312;-77
2022/11/27 04:16:01;;;;;;;16.00;9.82;;;10.10;99.90;;;;;;5039014;28;20312;-77
2022/11/27 04:18:29;;;;;;;16.25;10.60;;;10.10;99.90;;;;;;5038901;28;20213;-77
2022/11/27 04:20:59;;;;;;;12.68;9.60;;;10.10;99.90;;;;;;5039276;28;20726;-77
2022/11/27 04:23:29;;;;;;;15.93;11.30;;;10.10;99.90;;;;;;5029292;28;20217;-77
2022/11/27 04:26:00;;;;;;;10.88;8.82;;;10.00;99.90;;;;;;5019048;28;20304;-77
2022/11/27 04:28:27;;;;;;;15.43;10.50;;;10.00;99.90;;;;;;5027744;28;20690;-77
2022/11/27 04:30:54;;;;;;;15.50;9.80;;;10.00;99.90;;;;;;5038356;28;20232;-77
2022/11/27 04:33:21;;;;;;;13.98;9.32;;;10.00;99.90;;;;;;5039375;28;20300;-77
2022/11/27 04:35:50;;;;;;;17.85;10.15;;;10.00;99.90;;;;;;5038896;28;20252;-78
2022/11/27 04:38:18;;;;;;;18.17;10.60;;;10.00;99.90;;;;;;5039180;28;20245;-80
2022/11/27 04:40:45;;;;;;;15.75;10.85;;;10.00;99.90;;;;;;5039796;28;20679;-80
2022/11/27 04:43:13;;;;;;;15.38;12.02;;;10.00;99.90;;;;;;5038458;28;20235;-78
2022/11/27 04:45:40;;;;;;;14.25;11.75;;;10.00;99.90;;;;;;5037822;28;20217;-78
2022/11/27 04:48:07;;;;;;;21.83;13.10;;;9.90;99.90;;;;;;5034718;28;20291;-77
2022/11/27 04:50:34;;;;;;;14.13;11.57;;;9.90;99.90;;;;;;5036423;28;20229;-76
2022/11/27 04:53:02;;;;;;;15.55;12.40;;;9.80;99.90;;;;;;5035579;28;20678;-77
2022/11/27 04:55:30;;;;;;;18.15;14.35;;;9.80;99.90;;;;;;5036880;28;20308;-79
2022/11/27 04:57:57;;;;;;;18.33;12.63;;;9.80;99.90;;;;;;5036541;28;20655;-77
2022/11/27 05:00:24;;;;;;;17.77;13.55;;;9.70;99.90;;;;;;5035829;28;20245;-77
2022/11/27 05:02:51;;;;;;;14.52;12.20;;;9.70;99.90;;;;;;5036074;28;20584;-79
2022/11/27 05:05:18;;;;;;;13.73;11.85;;;9.70;99.90;;;;;;5035179;28;20279;-77
2022/11/27 05:07:45;;;;;;;19.40;12.88;;;9.50;99.90;;;;;;5037076;28;20287;-79
2022/11/27 05:10:15;;;;;;;12.55;10.45;;;9.50;99.90;;;;;;5033881;28;20663;-77
2022/11/27 05:12:42;;;;;;;14.88;11.48;;;9.50;99.90;;;;;;5036543;28;20622;-79
2022/11/27 05:15:12;;;;;;;19.00;12.13;;;9.40;99.90;;;;;;5035905;28;20249;-79
2022/11/27 05:17:57;;;;;;;16.30;11.38;;;9.40;99.90;;;;;;5036369;28;20248;-79
2022/11/27 05:20:24;;;;;;;13.02;11.10;;;9.30;99.90;;;;;;5033511;28;20547;-79
2022/11/27 05:22:51;;;;;;;20.08;13.40;;;9.30;99.90;;;;;;5035445;28;20229;-78
2022/11/27 05:25:19;;;;;;;13.85;12.35;;;9.30;99.90;;;;;;5034362;28;20246;-77
2022/11/27 05:27:48;;;;;;;17.55;11.60;;;9.20;99.90;;;;;;5035397;28;20320;-78
2022/11/27 05:30:18;;;;;;;17.48;12.60;;;9.20;99.90;;;;;;5034166;28;20283;-78
2022/11/27 05:32:45;;;;;;;13.75;12.45;;;9.10;99.90;;;;;;5035109;28;20261;-77
2022/11/27 05:35:12;;;;;;;16.17;12.80;;;9.10;99.90;;;;;;5034322;28;20256;-78
2022/11/27 05:37:39;;;;;;;18.10;12.63;;;9.10;99.90;;;;;;5035734;28;20218;-78
2022/11/27 05:40:07;;;;;;;18.33;12.68;;;9.00;99.90;;;;;;5035271;28;20226;-78
2022/11/27 05:42:36;;;;;;;18.95;12.00;;;9.00;99.90;;;;;;5035352;28;20735;-78
2022/11/27 05:45:09;;;;;;;18.00;13.80;;;8.90;99.90;;;;;;5035491;28;20253;-78
2022/11/27 05:47:36;;;;;;;15.23;13.55;;;8.90;99.90;;;;;;5044381;28;20221;-77
2022/11/27 05:50:03;;;;;;;14.55;12.77;;;8.80;99.90;;;;;;5040518;28;20267;-78
2022/11/27 05:52:30;;;;;;;18.45;13.10;;;8.80;99.90;;;;;;5031617;28;20407;-78
2022/11/27 05:54:59;;;;;;;30.50;18.83;;;8.80;99.90;;;;;;5040157;28;20639;-78
2022/11/27 05:57:27;;;;;;;27.05;15.98;;;8.80;99.90;;;;;;5034366;28;20359;-79
2022/11/27 05:59:55;;;;;;;25.23;16.35;;;8.80;99.90;;;;;;5034501;28;20327;-79
2022/11/27 06:02:22;;;;;;;20.85;15.82;;;8.70;99.90;;;;;;5034649;28;20259;-79
2022/11/27 06:04:49;;;;;;;20.00;15.05;;;8.70;99.90;;;;;;5034324;28;20236;-79
2022/11/27 06:07:16;;;;;;;17.35;14.43;;;8.70;99.90;;;;;;5034787;28;20252;-78
2022/11/27 06:09:43;;;;;;;14.02;12.32;;;8.70;99.90;;;;;;5034133;28;20309;-78
2022/11/27 06:12:10;;;;;;;17.38;11.90;;;8.60;99.90;;;;;;5034608;28;20229;-77
2022/11/27 06:14:37;;;;;;;14.35;12.30;;;8.60;99.90;;;;;;5033760;28;20317;-77
2022/11/27 06:17:06;;;;;;;14.02;10.57;;;8.60;99.90;;;;;;5034524;28;20248;-77
2022/11/27 06:19:33;;;;;;;15.40;11.95;;;8.60;99.90;;;;;;5033708;28;20225;-78
2022/11/27 06:21:59;;;;;;;18.05;11.32;;;8.50;99.90;;;;;;5033930;28;20236;-79
2022/11/27 06:24:27;;;;;;;15.00;11.85;;;8.50;99.90;;;;;;5023243;28;20320;-79
2022/11/27 06:26:54;;;;;;;18.83;12.30;;;8.50;99.90;;;;;;5033729;28;20225;-77
2022/11/27 06:29:21;;;;;;;18.10;11.73;;;8.50;99.90;;;;;;5033123;28;20229;-77
2022/11/27 06:31:48;;;;;;;15.32;12.55;;;8.40;99.90;;;;;;5034041;28;20260;-77
2022/11/27 06:34:20;;;;;;;18.35;12.43;;;8.40;99.90;;;;;;5034107;28;20321;-77
2022/11/27 06:36:48;;;;;;;15.95;11.18;;;8.40;99.90;;;;;;5033205;28;20279;-77
2022/11/27 06:39:17;;;;;;;17.90;12.80;;;8.40;99.90;;;;;;5033871;28;20539;-78
2022/11/27 06:41:49;;;;;;;21.48;12.52;;;8.40;99.90;;;;;;5032551;28;20232;-76
2022/11/27 06:44:16;;;;;;;16.52;12.00;;;8.40;99.90;;;;;;5034191;28;20221;-79
2022/11/27 06:46:43;;;;;;;17.67;13.60;;;8.40;99.90;;;;;;5032900;28;20287;-79
2022/11/27 06:49:11;;;;;;;18.25;13.98;;;8.30;99.90;;;;;;5030075;28;20233;-76
2022/11/27 06:51:39;;;;;;;25.83;19.23;;;8.30;99.90;;;;;;5032902;28;20566;-76
2022/11/27 06:54:06;;;;;;;18.83;14.30;;;8.30;99.90;;;;;;5033536;28;20317;-78
2022/11/27 06:56:36;;;;;;;16.95;13.13;;;8.20;99.90;;;;;;5032522;28;20308;-76
2022/11/27 06:59:03;;;;;;;18.08;12.10;;;8.20;99.90;;;;;;5033359;28;20225;-78
2022/11/27 07:01:33;;;;;;;22.05;14.30;;;8.20;99.90;;;;;;5032797;28;20225;-78
2022/11/27 07:04:00;;;;;;;17.33;11.88;;;8.20;99.90;;;;;;5033426;28;20225;-79
2022/11/27 07:06:33;;;;;;;16.65;11.73;;;8.20;99.90;;;;;;5033512;28;20248;-76
2022/11/27 07:09:03;;;;;;;14.85;11.45;;;8.20;99.90;;;;;;5032981;28;20241;-76
2022/11/27 07:11:33;;;;;;;17.33;12.77;;;8.10;99.90;;;;;;5032970;28;20278;-77
2022/11/27 07:14:04;;;;;;;18.38;13.07;;;8.10;99.90;;;;;;5033434;28;20560;-77
2022/11/27 07:16:33;;;;;;;20.10;12.50;;;8.10;99.90;;;;;;5033475;28;20555;-76
2022/11/27 07:19:02;;;;;;;21.33;14.15;;;8.10;99.90;;;;;;5032396;28;20256;-77
2022/11/27 07:21:29;;;;;;;17.35;12.70;;;8.10;99.90;;;;;;5032460;28;20225;-77
2022/11/27 07:23:57;;;;;;;15.70;12.63;;;8.00;99.90;;;;;;5022261;28;20232;-78
2022/11/27 07:26:27;;;;;;;17.77;13.25;;;8.00;99.90;;;;;;5024110;28;20229;-79
2022/11/27 07:28:56;;;;;;;14.07;11.98;;;7.90;99.90;;;;;;5031855;28;20244;-78
2022/11/27 07:31:28;;;;;;;18.02;13.10;;;7.90;99.90;;;;;;5032626;28;20251;-77
2022/11/27 07:33:57;;;;;;;15.88;12.00;;;7.90;99.90;;;;;;5032450;28;20232;-79
2022/11/27 07:36:25;;;;;;;17.98;12.88;;;7.90;99.90;;;;;;5032858;28;20290;-79
2022/11/27 07:38:53;;;;;;;15.18;11.38;;;7.90;99.90;;;;;;5032791;28;20245;-77
2022/11/27 07:41:20;;;;;;;14.25;11.85;;;8.00;99.90;;;;;;5032983;28;20221;-77
2022/11/27 07:43:51;;;;;;;21.10;12.95;;;7.90;99.90;;;;;;5032568;28;20241;-79
2022/11/27 07:46:19;;;;;;;13.57;10.43;;;7.90;99.90;;;;;;5033305;28;20324;-77
2022/11/27 07:48:47;;;;;;;15.38;11.52;;;7.90;99.90;;;;;;5031903;28;20235;-77
2022/11/27 07:51:18;;;;;;;18.67;13.43;;;7.90;99.90;;;;;;5021834;28;20232;-77
2022/11/27 07:53:45;;;;;;;13.77;11.93;;;7.90;99.90;;;;;;5032375;28;20221;-77
2022/11/27 07:58:59;;;;;;;13.90;10.50;;;7.90;99.90;;;;;;5031376;28;20555;-76
2022/11/27 08:01:29;;;;;;;21.10;13.00;;;7.90;99.90;;;;;;5022288;28;20221;-78
2022/11/27 08:03:56;;;;;;;14.95;10.77;;;7.80;99.90;;;;;;5033055;28;20229;-78
2022/11/27 08:06:56;;;;;;;18.35;12.15;;;7.80;99.90;;;;;;5023809;28;20308;-78
2022/11/27 08:09:23;;;;;;;17.58;12.30;;;7.80;99.90;;;;;;5027115;28;20665;-78
2022/11/27 08:11:50;;;;;;;19.40;12.80;;;7.80;99.90;;;;;;5031895;28;20221;-79
2022/11/27 08:14:19;;;;;;;19.38;13.07;;;7.80;99.90;;;;;;5031907;28;20229;-79
2022/11/27 08:16:46;;;;;;;17.05;12.55;;;7.80;99.90;;;;;;5024298;28;20232;-78
2022/11/27 08:19:20;;;;;;;17.00;13.48;;;7.80;99.90;;;;;;5031675;28;20240;-79
2022/11/27 08:21:46;;;;;;;24.00;14.18;;;7.80;99.90;;;;;;5021311;28;20305;-78
2022/11/27 08:24:13;;;;;;;19.90;14.93;;;7.80;99.90;;;;;;5036296;28;20226;-77
2022/11/27 08:26:40;;;;;;;14.43;11.25;;;7.80;99.90;;;;;;5035977;28;20225;-78
2022/11/27 08:29:07;;;;;;;15.70;13.98;;;7.80;99.90;;;;;;5035571;28;20229;-78
2022/11/27 08:31:39;;;;;;;18.25;13.77;;;7.80;99.90;;;;;;5035758;28;20229;-77
2022/11/27 08:34:10;;;;;;;16.95;14.38;;;7.80;99.90;;;;;;5035730;28;20240;-77
2022/11/27 08:36:37;;;;;;;16.23;12.75;;;7.70;99.90;;;;;;5033366;28;20229;-78
2022/11/27 08:39:07;;;;;;;15.02;12.63;;;7.80;99.90;;;;;;5036088;28;20259;-77
2022/11/27 08:41:34;;;;;;;15.02;11.75;;;7.80;99.90;;;;;;5034913;28;20222;-76
2022/11/27 08:44:01;;;;;;;15.27;11.15;;;7.80;99.90;;;;;;5036072;28;20704;-77
2022/11/27 08:46:31;;;;;;;15.98;11.70;;;7.80;99.90;;;;;;5035325;28;20240;-78
2022/11/27 08:49:00;;;;;;;12.30;10.60;;;7.80;99.90;;;;;;5036407;28;20225;-77
2022/11/27 08:51:31;;;;;;;14.57;13.00;;;7.80;99.90;;;;;;5026501;28;20225;-78
2022/11/27 08:53:58;;;;;;;14.27;11.57;;;7.90;99.90;;;;;;5026878;28;20226;-78
2022/11/27 08:56:31;;;;;;;18.20;12.18;;;7.90;99.90;;;;;;5027472;28;20620;-79
2022/11/27 08:58:58;;;;;;;15.27;11.93;;;7.90;99.90;;;;;;5035666;28;20233;-78
2022/11/27 09:01:26;;;;;;;20.27;15.32;;;7.90;99.90;;;;;;5036040;28;20248;-78
2022/11/27 09:03:56;;;;;;;16.67;13.90;;;7.90;99.90;;;;;;5026759;28;20320;-78
2022/11/27 09:06:27;;;;;;;15.68;12.75;;;7.90;99.90;;;;;;5035222;28;20558;-78
2022/11/27 09:08:56;;;;;;;16.50;13.05;;;8.00;99.90;;;;;;5035021;28;20793;-78
2022/11/27 09:11:23;;;;;;;15.23;11.95;;;8.00;99.90;;;;;;5035039;28;20241;-77
2022/11/27 09:13:56;;;;;;;17.85;12.07;;;8.00;99.90;;;;;;5035432;28;20218;-77
2022/11/27 09:19:25;;;;;;;14.10;12.35;;;8.10;99.90;;;;;;5034342;28;20287;-77
2022/11/27 09:21:53;;;;;;;15.45;12.40;;;8.10;99.90;;;;;;5035219;28;20300;-77
2022/11/27 09:24:33;;;;;;;16.50;12.18;;;8.10;99.90;;;;;;5024829;28;20260;-79
2022/11/27 09:27:02;;;;;;;15.90;12.75;;;8.10;99.90;;;;;;5035223;28;20260;-77
2022/11/27 09:29:34;;;;;;;22.00;14.60;;;8.10;99.90;;;;;;5034728;28;20222;-76
2022/11/27 09:32:09;;;;;;;19.95;12.40;;;8.10;99.90;;;;;;5034686;28;20248;-76
2022/11/27 09:34:36;;;;;;;15.13;13.30;;;8.10;99.90;;;;;;5034578;28;20246;-76
2022/11/27 09:37:19;;;;;;;17.52;13.07;;;8.10;99.90;;;;;;5033937;28;20705;-76
2022/11/27 09:39:47;;;;;;;14.40;12.65;;;8.10;99.90;;;;;;5023692;28;20248;-76
2022/11/27 09:42:25;;;;;;;16.00;13.45;;;8.10;99.90;;;;;;5034298;28;20221;-76
2022/11/27 09:45:00;;;;;;;19.05;12.90;;;8.10;99.90;;;;;;5034009;28;20304;-76
2022/11/27 09:47:40;;;;;;;17.40;13.18;;;8.10;99.90;;;;;;5034742;28;20217;-78
2022/11/27 09:50:21;;;;;;;13.25;11.63;;;8.20;99.90;;;;;;5033815;28;20225;-77
2022/11/27 09:52:54;;;;;;;15.73;12.50;;;8.10;99.90;;;;;;5035222;28;20217;-78
2022/11/27 09:55:28;;;;;;;15.05;12.68;;;8.20;99.90;;;;;;5033692;28;20243;-78
2022/11/27 09:58:02;;;;;;;17.45;12.90;;;8.30;99.90;;;;;;5024991;28;20229;-78
2022/11/27 10:00:31;;;;;;;16.90;12.35;;;8.30;99.90;;;;;;5033261;28;20616;-78
2022/11/27 10:03:02;;;;;;;13.57;10.40;;;8.40;99.90;;;;;;5034942;28;20304;-78
2022/11/27 10:08:35;;;;;;;19.20;13.75;;;8.50;99.90;;;;;;5031318;28;20221;-77
2022/11/27 10:11:18;;;;;;;17.90;13.50;;;8.50;99.90;;;;;;5034521;28;20233;-77
2022/11/27 10:14:05;;;;;;;14.98;12.13;;;8.60;99.90;;;;;;5034545;28;20271;-77
2022/11/27 10:16:38;;;;;;;14.45;12.32;;;8.60;99.90;;;;;;5034485;28;20233;-77
2022/11/27 10:19:27;;;;;;;21.20;16.92;;;8.70;99.90;;;;;;5034625;28;20240;-79
2022/11/27 10:21:58;;;;;;;16.70;12.80;;;8.70;99.90;;;;;;5015127;28;20274;-78
2022/11/27 10:24:36;;;;;;;13.57;11.85;;;8.70;99.90;;;;;;5033671;28;20300;-78
2022/11/27 10:27:14;;;;;;;13.75;11.48;;;8.80;99.90;;;;;;5024670;28;20228;-78
2022/11/27 10:29:47;;;;;;;15.35;11.85;;;8.80;99.90;;;;;;5033960;28;20260;-79
2022/11/27 10:32:19;;;;;;;11.55;9.90;;;8.80;99.90;;;;;;5034918;28;20232;-77
2022/11/27 10:34:53;;;;;;;13.60;11.65;;;8.90;99.90;;;;;;5034443;28;20228;-77
2022/11/27 10:37:36;;;;;;;14.73;11.18;;;8.80;99.90;;;;;;5034315;28;20225;-77
2022/11/27 10:40:20;;;;;;;10.98;9.70;;;8.80;99.90;;;;;;5033667;28;20551;-79
2022/11/27 10:42:54;;;;;;;12.35;11.00;;;8.90;99.90;;;;;;5025308;28;20221;-78
2022/11/27 10:45:24;;;;;;;16.50;10.57;;;8.90;99.90;;;;;;5032794;28;20241;-79
2022/11/27 10:47:52;;;;;;;13.55;10.50;;;8.90;99.90;;;;;;5034169;28;20225;-77
2022/11/27 10:50:20;;;;;;;14.32;12.82;;;9.00;99.90;;;;;;5034521;28;20307;-77
2022/11/27 10:53:02;;;;;;;17.95;16.17;;;9.10;99.90;;;;;;5034244;28;20251;-77
2022/11/27 10:55:42;;;;;;;17.08;15.30;;;9.10;99.90;;;;;;5026782;28;20232;-80
2022/11/27 10:58:27;;;;;;;20.20;18.20;;;9.10;99.90;;;;;;5020396;28;20234;-78
2022/11/27 11:01:08;;;;;;;20.23;18.08;;;9.10;99.90;;;;;;5039097;28;20713;-78
2022/11/27 11:03:38;;;;;;;18.58;15.00;;;9.10;99.90;;;;;;5025555;28;20243;-78
2022/11/27 11:06:08;;;;;;;19.75;16.80;;;9.10;99.90;;;;;;5026050;28;20225;-77
2022/11/27 11:08:42;;;;;;;16.02;14.40;;;9.20;99.90;;;;;;5039256;28;20217;-76
2022/11/27 11:11:10;;;;;;;14.48;12.40;;;9.20;99.90;;;;;;5028725;28;21093;-77
2022/11/27 11:13:49;;;;;;;17.45;14.85;;;9.10;99.90;;;;;;5032668;28;20239;-77
2022/11/27 11:16:19;;;;;;;16.38;14.98;;;9.20;99.90;;;;;;5031629;28;20308;-77
2022/11/27 11:18:48;;;;;;;15.80;14.23;;;9.20;99.90;;;;;;5022361;28;20226;-79
2022/11/27 11:21:18;;;;;;;13.45;12.15;;;9.20;99.90;;;;;;5031595;28;20221;-79
2022/11/27 11:24:04;;;;;;;15.48;10.60;;;9.30;99.90;;;;;;5034149;28;20231;-78
2022/11/27 11:26:41;;;;;;;13.23;11.10;;;9.30;99.90;;;;;;5033823;28;20300;-78
2022/11/27 11:29:26;;;;;;;11.77;9.98;;;9.40;99.90;;;;;;5033878;28;20224;-79
2022/11/27 11:31:53;;;;;;;9.60;8.63;;;9.40;99.90;;;;;;5032907;28;20308;-78
2022/11/27 11:34:23;;;;;;;16.67;11.07;;;9.40;99.90;;;;;;5029612;28;20228;-80
2022/11/27 11:36:57;;;;;;;13.98;10.80;;;9.40;99.90;;;;;;5032096;28;20231;-79
2022/11/27 11:39:27;;;;;;;15.48;10.55;;;9.40;99.90;;;;;;5033048;28;20335;-77
2022/11/27 11:41:57;;;;;;;15.25;12.07;;;9.50;99.90;;;;;;5033599;28;20264;-76
2022/11/27 11:44:35;;;;;;;11.70;10.43;;;9.50;99.90;;;;;;5033595;28;20233;-77
2022/11/27 11:47:02;;;;;;;13.20;10.20;;;9.60;99.90;;;;;;5018533;28;20233;-77
2022/11/27 11:49:34;;;;;;;10.70;9.70;;;9.60;99.90;;;;;;5023574;28;20261;-77
2022/11/27 11:52:20;;;;;;;12.25;10.90;;;9.70;99.90;;;;;;5022388;28;20287;-78
2022/11/27 11:55:01;;;;;;;12.50;11.35;;;9.70;99.90;;;;;;5033523;28;20307;-78
2022/11/27 11:57:52;;;;;;;15.00;13.55;;;9.70;99.90;;;;;;5037272;28;20271;-77
2022/11/27 12:04:05;;;;;;;15.15;13.20;;;9.70;99.90;;;;;;4987446;28;20590;-75
2022/11/27 12:06:52;;;;;;;15.13;11.95;;;9.80;99.90;;;;;;5037553;28;20240;-78
2022/11/27 12:09:35;;;;;;;14.73;11.48;;;9.70;99.90;;;;;;5018332;28;20225;-76
2022/11/27 12:12:17;;;;;;;13.02;11.43;;;9.70;99.90;;;;;;5021487;28;20230;-79
2022/11/27 12:14:50;;;;;;;10.85;8.82;;;9.70;99.90;;;;;;5018937;28;20279;-77
2022/11/27 12:17:37;;;;;;;14.10;11.07;;;9.80;99.90;;;;;;5018611;28;20226;-78
2022/11/27 12:20:21;;;;;;;11.38;9.85;;;9.80;99.90;;;;;;5017823;28;20234;-78
2022/11/27 12:23:17;;;;;;;12.02;9.80;;;9.80;99.90;;;;;;5012637;28;20249;-78
2022/11/27 12:25:50;;;;;;;10.18;9.18;;;9.80;99.90;;;;;;5016742;28;20293;-78
2022/11/27 12:28:41;;;;;;;12.68;11.40;;;9.80;99.90;;;;;;5016941;28;20226;-77
2022/11/27 12:31:20;;;;;;;13.18;10.63;;;9.70;99.90;;;;;;5006735;28;20230;-79
2022/11/27 12:33:59;;;;;;;11.73;9.95;;;9.70;99.90;;;;;;5019701;28;20283;-79
2022/11/27 12:36:50;;;;;;;11.98;10.57;;;9.70;99.90;;;;;;5020086;28;20249;-78
2022/11/27 12:39:25;;;;;;;11.05;9.85;;;9.70;99.90;;;;;;5014926;28;20364;-79
2022/11/27 12:42:14;;;;;;;12.35;9.57;;;9.70;99.90;;;;;;5027535;28;20232;-78
2022/11/27 12:44:50;;;;;;;11.13;9.75;;;9.70;99.90;;;;;;5039810;28;20213;-78
2022/11/27 12:47:32;;;;;;;14.77;11.05;;;9.70;99.90;;;;;;5039278;28;20225;-78
2022/11/27 12:50:05;;;;;;;17.02;11.68;;;9.70;99.90;;;;;;5037780;28;20233;-79
2022/11/27 12:52:39;;;;;;;16.83;10.00;;;9.60;99.90;;;;;;5041329;28;20271;-78
2022/11/27 12:55:12;;;;;;;12.45;11.15;;;9.60;99.90;;;;;;5033174;28;20318;-79
2022/11/27 12:57:47;;;;;;;16.67;10.90;;;9.70;99.90;;;;;;5021074;28;20238;-76
2022/11/27 13:00:17;;;;;;;11.63;10.52;;;9.70;99.90;;;;;;5017949;28;20237;-77
2022/11/27 13:02:59;;;;;;;13.82;10.40;;;9.70;99.90;;;;;;5017851;28;20640;-79
2022/11/27 13:05:30;;;;;;;15.88;10.93;;;9.70;99.90;;;;;;5008603;28;20715;-79
2022/11/27 13:08:21;;;;;;;12.55;10.68;;;9.70;99.90;;;;;;5017406;28;20226;-79
2022/11/27 13:10:57;;;;;;;11.73;9.93;;;9.70;99.90;;;;;;5028453;28;20222;-79
2022/11/27 13:13:37;;;;;;;14.73;10.45;;;9.70;99.90;;;;;;5040801;28;20245;-79
2022/11/27 13:16:07;;;;;;;20.48;10.85;;;9.60;99.90;;;;;;5038361;28;20316;-78
2022/11/27 13:21:15;;;;;;;12.35;11.13;;;9.60;99.90;;;;;;4369806;26;20220;-79